createdAt,value
2023-03-02T00:00:13.823Z,0.00
2023-03-02T00:01:13.674Z,0.00
2023-03-02T00:02:13.688Z,0.00
2023-03-02T00:03:13.699Z,0.00
2023-03-02T00:04:13.824Z,0.00
2023-03-02T00:05:14.100Z,0.00
2023-03-02T00:06:13.183Z,0.00
2023-03-02T00:07:13.554Z,0.00
2023-03-02T00:08:13.379Z,0.00
2023-03-02T00:09:13.285Z,0.00
2023-03-02T00:10:13.393Z,0.00
2023-03-02T00:11:13.651Z,0.00
2023-03-02T00:12:13.755Z,0.00
2023-03-02T00:13:14.096Z,0.00
2023-03-02T00:14:50.695Z,0.00
2023-03-02T00:15:13.819Z,0.00
2023-03-02T00:16:13.988Z,0.00
2023-03-02T00:17:13.266Z,0.00
2023-03-02T00:18:13.499Z,0.00
2023-03-02T00:19:13.623Z,0.00
2023-03-02T00:20:13.497Z,0.00
2023-03-02T00:21:13.614Z,0.00
2023-03-02T00:22:13.512Z,0.00
2023-03-02T00:23:14.001Z,0.00
2023-03-02T00:24:12.917Z,0.00
2023-03-02T00:25:12.948Z,0.00
2023-03-02T00:26:12.813Z,0.00
2023-03-02T00:27:13.724Z,0.00
2023-03-02T00:28:13.876Z,0.00
2023-03-02T00:29:13.885Z,0.00
2023-03-02T00:30:13.952Z,0.00
2023-03-02T00:31:13.322Z,0.00
2023-03-02T00:32:13.650Z,0.00
2023-03-02T00:33:14.042Z,0.00
2023-03-02T00:34:13.134Z,0.00
2023-03-02T00:35:13.285Z,0.00
2023-03-02T00:36:13.355Z,0.00
2023-03-02T00:37:13.252Z,0.00
2023-03-02T00:38:13.280Z,0.00
2023-03-02T00:39:13.243Z,0.00
2023-03-02T00:40:13.176Z,0.00
2023-03-02T00:41:13.122Z,0.00
2023-03-02T00:42:13.129Z,0.00
2023-03-02T00:43:13.267Z,0.00
2023-03-02T00:44:13.357Z,0.00
2023-03-02T00:45:13.296Z,0.00
2023-03-02T00:46:13.696Z,0.00
2023-03-02T00:47:13.844Z,0.00
2023-03-02T00:48:13.851Z,0.00
2023-03-02T00:49:16.774Z,0.00
2023-03-02T00:50:14.003Z,0.00
2023-03-02T00:51:12.959Z,0.00
2023-03-02T00:52:13.126Z,0.00
2023-03-02T00:53:13.332Z,0.00
2023-03-02T00:54:13.292Z,0.00
2023-03-02T00:55:13.308Z,0.00
2023-03-02T00:56:13.562Z,0.00
2023-03-02T00:57:13.761Z,0.00
2023-03-02T00:58:14.137Z,0.00
2023-03-02T00:59:13.378Z,0.00
2023-03-02T01:00:13.354Z,0.00
2023-03-02T01:01:13.545Z,0.00
2023-03-02T01:02:13.642Z,0.00
2023-03-02T01:03:13.670Z,0.00
2023-03-02T01:04:13.764Z,0.00
2023-03-02T01:05:13.992Z,0.00
2023-03-02T01:06:12.943Z,0.00
2023-03-02T01:07:13.396Z,0.00
2023-03-02T01:08:13.362Z,0.00
2023-03-02T01:09:13.339Z,0.00
2023-03-02T01:10:13.482Z,0.00
2023-03-02T01:11:13.905Z,0.00
2023-03-02T01:12:12.963Z,0.00
2023-03-02T01:13:13.268Z,0.00
2023-03-02T01:14:13.314Z,0.00
2023-03-02T01:15:13.242Z,0.00
2023-03-02T01:16:13.199Z,0.00
2023-03-02T01:17:13.133Z,0.00
2023-03-02T01:18:13.193Z,0.00
2023-03-02T01:19:13.082Z,0.00
2023-03-02T01:20:13.051Z,0.00
2023-03-02T01:21:13.266Z,0.00
2023-03-02T01:22:13.327Z,0.00
2023-03-02T01:23:13.355Z,0.00
2023-03-02T01:24:13.488Z,0.00
2023-03-02T01:25:13.472Z,0.00
2023-03-02T01:26:13.782Z,0.00
2023-03-02T01:27:13.710Z,0.00
2023-03-02T01:28:14.062Z,0.00
2023-03-02T01:29:12.965Z,0.00
2023-03-02T01:30:13.019Z,0.00
2023-03-02T01:31:13.255Z,0.00
2023-03-02T01:32:13.546Z,0.00
2023-03-02T01:33:13.421Z,0.00
2023-03-02T01:34:13.436Z,0.00
2023-03-02T01:35:13.381Z,0.00
2023-03-02T01:36:13.609Z,0.00
2023-03-02T01:37:13.542Z,0.00
2023-03-02T01:38:14.006Z,0.00
2023-03-02T01:39:13.074Z,0.00
2023-03-02T01:40:13.423Z,0.00
2023-03-02T01:41:13.501Z,0.00
2023-03-02T01:42:13.446Z,0.00
2023-03-02T01:43:13.410Z,0.00
2023-03-02T01:44:13.773Z,0.00
2023-03-02T01:45:13.729Z,0.00
2023-03-02T01:46:13.857Z,0.00
2023-03-02T01:47:13.051Z,0.00
2023-03-02T01:48:12.985Z,0.00
2023-03-02T01:49:12.939Z,0.00
2023-03-02T01:50:12.912Z,0.00
2023-03-02T01:51:12.864Z,0.00
2023-03-02T01:52:13.756Z,0.00
2023-03-02T01:53:13.761Z,0.00
2023-03-02T01:54:13.741Z,0.00
2023-03-02T01:55:13.948Z,0.00
2023-03-02T01:56:12.939Z,0.00
2023-03-02T01:57:12.968Z,0.00
2023-03-02T01:58:13.045Z,0.00
2023-03-02T01:59:13.200Z,0.00
2023-03-02T02:00:13.102Z,0.00
2023-03-02T02:01:13.440Z,0.00
2023-03-02T02:02:13.589Z,0.00
2023-03-02T02:03:13.943Z,0.00
2023-03-02T02:04:13.039Z,0.00
2023-03-02T02:05:13.318Z,0.00
2023-03-02T02:06:13.428Z,0.00
2023-03-02T02:07:13.365Z,0.00
2023-03-02T02:08:13.297Z,0.00
2023-03-02T02:09:13.343Z,0.00
2023-03-02T02:10:13.393Z,0.00
2023-03-02T02:11:13.437Z,0.00
2023-03-02T02:12:13.484Z,0.00
2023-03-02T02:13:13.489Z,0.00
2023-03-02T02:14:14.777Z,0.00
2023-03-02T02:15:13.987Z,0.00
2023-03-02T02:16:13.002Z,0.00
2023-03-02T02:17:13.190Z,0.00
2023-03-02T02:18:13.115Z,0.00
2023-03-02T02:19:13.158Z,0.00
2023-03-02T02:20:13.326Z,0.00
2023-03-02T02:21:13.579Z,0.00
2023-03-02T02:22:13.890Z,0.00
2023-03-02T02:23:12.835Z,0.00
2023-03-02T02:24:13.795Z,0.00
2023-03-02T02:25:13.617Z,0.00
2023-03-02T02:26:13.615Z,0.00
2023-03-02T02:27:13.782Z,0.00
2023-03-02T02:28:14.043Z,0.00
2023-03-02T02:29:13.512Z,0.00
2023-03-02T02:30:13.719Z,0.00
2023-03-02T02:31:13.720Z,0.00
2023-03-02T02:32:13.907Z,0.00
2023-03-02T02:33:12.903Z,0.00
2023-03-02T02:34:13.155Z,0.00
2023-03-02T02:35:13.064Z,0.00
2023-03-02T02:36:13.040Z,0.00
2023-03-02T02:37:13.149Z,0.00
2023-03-02T02:38:13.210Z,0.00
2023-03-02T02:39:13.595Z,0.00
2023-03-02T02:40:13.705Z,0.00
2023-03-02T02:41:13.685Z,0.00
2023-03-02T02:42:13.820Z,0.00
2023-03-02T02:43:13.955Z,0.00
2023-03-02T02:44:13.147Z,0.00
2023-03-02T02:45:13.361Z,0.00
2023-03-02T02:46:13.600Z,0.00
2023-03-02T02:47:13.899Z,0.00
2023-03-02T02:48:13.012Z,0.00
2023-03-02T02:49:13.260Z,0.00
2023-03-02T02:50:13.280Z,0.00
2023-03-02T02:51:13.428Z,0.00
2023-03-02T02:52:13.369Z,0.00
2023-03-02T02:53:13.233Z,0.00
2023-03-02T02:54:13.197Z,0.00
2023-03-02T02:55:13.021Z,0.00
2023-03-02T02:56:13.164Z,0.00
2023-03-02T02:57:13.089Z,0.00
2023-03-02T02:58:13.227Z,0.00
2023-03-02T02:59:13.074Z,0.00
2023-03-02T03:00:13.030Z,0.00
2023-03-02T03:01:13.242Z,0.00
2023-03-02T03:02:13.613Z,0.00
2023-03-02T03:03:13.658Z,0.00
2023-03-02T03:04:13.745Z,0.00
2023-03-02T03:05:13.836Z,0.00
2023-03-02T03:06:13.753Z,0.00
2023-03-02T03:07:13.667Z,0.00
2023-03-02T03:08:13.615Z,0.00
2023-03-02T03:09:13.620Z,0.00
2023-03-02T03:10:13.901Z,0.00
2023-03-02T03:11:12.798Z,0.00
2023-03-02T03:12:13.610Z,0.00
2023-03-02T03:13:13.395Z,0.00
2023-03-02T03:14:13.205Z,0.00
2023-03-02T03:15:13.049Z,0.00
2023-03-02T03:16:13.452Z,0.00
2023-03-02T03:17:13.784Z,0.00
2023-03-02T03:18:13.231Z,0.00
2023-03-02T03:19:13.513Z,0.00
2023-03-02T03:20:13.797Z,0.00
2023-03-02T03:21:13.771Z,0.00
2023-03-02T03:22:14.161Z,0.00
2023-03-02T03:23:13.549Z,0.00
2023-03-02T03:24:13.667Z,0.00
2023-03-02T03:25:13.700Z,0.00
2023-03-02T03:26:13.522Z,0.00
2023-03-02T03:27:13.362Z,0.00
2023-03-02T03:28:13.307Z,0.00
2023-03-02T03:29:13.457Z,0.00
2023-03-02T03:30:13.383Z,0.00
2023-03-02T03:31:13.544Z,0.00
2023-03-02T03:32:13.746Z,0.00
2023-03-02T03:33:13.920Z,0.00
2023-03-02T03:34:12.859Z,0.00
2023-03-02T03:35:13.724Z,0.00
2023-03-02T03:36:13.578Z,0.00
2023-03-02T03:37:14.506Z,0.00
2023-03-02T03:38:13.366Z,0.00
2023-03-02T03:39:13.266Z,0.00
2023-03-02T03:40:13.245Z,0.00
2023-03-02T03:41:13.164Z,0.00
2023-03-02T03:42:13.221Z,0.00
2023-03-02T03:43:13.134Z,0.00
2023-03-02T03:44:13.345Z,0.00
2023-03-02T03:45:18.603Z,0.00
2023-03-02T03:46:13.811Z,0.00
2023-03-02T03:47:13.780Z,0.00
2023-03-02T03:48:14.059Z,0.00
2023-03-02T03:49:13.276Z,0.00
2023-03-02T03:50:13.419Z,0.00
2023-03-02T03:51:19.178Z,0.00
2023-03-02T03:52:13.205Z,0.00
2023-03-02T03:53:13.160Z,0.00
2023-03-02T03:54:13.119Z,0.00
2023-03-02T03:55:13.179Z,0.00
2023-03-02T03:56:13.456Z,0.00
2023-03-02T03:57:13.746Z,0.00
2023-03-02T03:58:13.931Z,0.00
2023-03-02T03:59:13.141Z,0.00
2023-03-02T04:00:13.184Z,0.00
2023-03-02T04:01:13.368Z,0.00
2023-03-02T04:02:13.737Z,0.00
2023-03-02T04:03:13.783Z,0.00
2023-03-02T04:04:13.691Z,0.00
2023-03-02T04:05:14.199Z,0.00
2023-03-02T04:06:13.143Z,0.00
2023-03-02T04:07:13.195Z,0.00
2023-03-02T04:08:13.128Z,0.00
2023-03-02T04:09:13.348Z,0.00
2023-03-02T04:10:13.253Z,0.00
2023-03-02T04:11:13.151Z,0.00
2023-03-02T04:12:13.457Z,0.00
2023-03-02T04:13:13.531Z,0.00
2023-03-02T04:14:13.494Z,0.00
2023-03-02T04:15:13.539Z,0.00
2023-03-02T04:16:13.578Z,0.00
2023-03-02T04:17:13.891Z,0.00
2023-03-02T04:18:13.078Z,0.00
2023-03-02T04:19:12.988Z,0.00
2023-03-02T04:20:12.912Z,0.00
2023-03-02T04:21:12.978Z,0.00
2023-03-02T04:22:13.106Z,0.00
2023-03-02T04:23:13.300Z,0.00
2023-03-02T04:24:13.353Z,0.00
2023-03-02T04:25:13.444Z,0.00
2023-03-02T04:26:13.731Z,0.00
2023-03-02T04:27:13.978Z,0.00
2023-03-02T04:28:13.075Z,0.00
2023-03-02T04:29:13.256Z,0.00
2023-03-02T04:30:13.224Z,0.00
2023-03-02T04:31:13.410Z,0.00
2023-03-02T04:32:13.435Z,0.00
2023-03-02T04:33:13.574Z,0.00
2023-03-02T04:34:13.481Z,0.00
2023-03-02T04:35:13.583Z,0.00
2023-03-02T04:36:13.515Z,0.00
2023-03-02T04:37:13.492Z,0.00
2023-03-02T04:38:13.487Z,0.00
2023-03-02T04:39:13.493Z,0.00
2023-03-02T04:40:13.475Z,0.00
2023-03-02T04:41:13.445Z,0.00
2023-03-02T04:42:13.431Z,0.00
2023-03-02T04:43:13.650Z,0.00
2023-03-02T04:44:13.621Z,0.00
2023-03-02T04:45:13.827Z,0.00
2023-03-02T04:46:14.224Z,0.00
2023-03-02T04:47:13.580Z,0.00
2023-03-02T04:48:13.520Z,0.00
2023-03-02T04:49:13.549Z,0.00
2023-03-02T04:50:13.583Z,0.00
2023-03-02T04:51:13.549Z,0.00
2023-03-02T04:52:13.624Z,0.00
2023-03-02T04:53:13.735Z,0.00
2023-03-02T04:54:13.735Z,0.00
2023-03-02T04:55:13.617Z,0.00
2023-03-02T04:56:13.678Z,0.00
2023-03-02T04:57:13.545Z,0.00
2023-03-02T04:59:24.982Z,0.00
2023-03-02T05:00:12.889Z,0.00
2023-03-02T05:01:12.815Z,0.00
2023-03-02T05:02:14.107Z,0.00
2023-03-02T05:03:13.470Z,0.00
2023-03-02T05:04:14.319Z,0.00
2023-03-02T05:05:13.682Z,0.00
2023-03-02T05:06:13.578Z,0.00
2023-03-02T05:07:13.850Z,0.00
2023-03-02T05:08:13.738Z,0.00
2023-03-02T05:09:13.955Z,0.00
2023-03-02T05:10:13.052Z,0.00
2023-03-02T05:11:13.458Z,0.00
2023-03-02T05:12:13.363Z,0.00
2023-03-02T05:13:13.275Z,0.00
2023-03-02T05:14:13.135Z,0.00
2023-03-02T05:15:13.063Z,0.00
2023-03-02T05:16:13.070Z,0.00
2023-03-02T05:17:13.248Z,0.00
2023-03-02T05:18:13.286Z,0.00
2023-03-02T05:19:13.566Z,0.00
2023-03-02T05:20:13.691Z,0.00
2023-03-02T05:21:14.001Z,0.00
2023-03-02T05:22:12.836Z,0.00
2023-03-02T05:23:14.076Z,0.00
2023-03-02T05:24:13.143Z,0.00
2023-03-02T05:25:13.129Z,0.00
2023-03-02T05:26:13.120Z,0.00
2023-03-02T05:27:12.973Z,0.00
2023-03-02T05:28:12.826Z,0.00
2023-03-02T05:29:13.884Z,0.00
2023-03-02T05:30:13.550Z,0.00
2023-03-02T05:31:13.781Z,0.00
2023-03-02T05:32:13.704Z,0.00
2023-03-02T05:33:13.815Z,0.00
2023-03-02T05:34:19.127Z,0.00
2023-03-02T05:35:14.206Z,0.00
2023-03-02T05:36:13.688Z,0.00
2023-03-02T05:37:13.913Z,0.00
2023-03-02T05:38:13.234Z,0.00
2023-03-02T05:39:13.266Z,0.77
2023-03-02T05:40:13.385Z,0.77
2023-03-02T05:41:13.321Z,0.77
2023-03-02T05:42:13.428Z,0.77
2023-03-02T05:43:14.049Z,1.53
2023-03-02T05:44:13.181Z,1.53
2023-03-02T05:45:13.055Z,2.29
2023-03-02T05:46:13.108Z,2.29
2023-03-02T05:47:13.521Z,3.06
2023-03-02T05:48:13.895Z,3.82
2023-03-02T05:49:13.110Z,5.35
2023-03-02T05:50:13.378Z,6.12
2023-03-02T05:51:13.209Z,7.65
2023-03-02T05:52:13.255Z,9.18
2023-03-02T05:53:13.466Z,10.71
2023-03-02T05:54:13.815Z,12.24
2023-03-02T05:55:14.693Z,15.30
2023-03-02T05:56:13.598Z,18.36
2023-03-02T05:57:13.498Z,21.42
2023-03-02T05:58:13.410Z,24.48
2023-03-02T05:59:13.552Z,30.60
2023-03-02T06:00:13.531Z,36.72
2023-03-02T06:01:15.506Z,42.84
2023-03-02T06:02:13.955Z,48.96
2023-03-02T06:03:13.231Z,55.08
2023-03-02T06:04:13.586Z,67.32
2023-03-02T06:05:13.540Z,73.44
2023-03-02T06:06:14.242Z,85.68
2023-03-02T06:07:13.624Z,97.92
2023-03-02T06:08:13.635Z,110.16
2023-03-02T06:09:14.892Z,122.40
2023-03-02T06:10:12.899Z,134.64
2023-03-02T06:11:13.377Z,159.12
2023-03-02T06:12:13.903Z,171.36
2023-03-02T06:13:13.032Z,195.84
2023-03-02T06:14:13.107Z,195.84
2023-03-02T06:15:13.294Z,220.32
2023-03-02T06:16:13.443Z,244.80
2023-03-02T06:17:13.381Z,269.28
2023-03-02T06:18:13.301Z,293.76
2023-03-02T06:19:13.244Z,318.24
2023-03-02T06:20:13.169Z,367.20
2023-03-02T06:21:13.210Z,391.68
2023-03-02T06:22:13.138Z,391.68
2023-03-02T06:23:13.021Z,440.64
2023-03-02T06:24:12.928Z,440.64
2023-03-02T06:25:12.938Z,489.60
2023-03-02T06:26:12.922Z,489.60
2023-03-02T06:27:13.285Z,538.56
2023-03-02T06:28:13.351Z,587.52
2023-03-02T06:29:13.485Z,587.52
2023-03-02T06:30:13.524Z,636.48
2023-03-02T06:31:13.803Z,685.44
2023-03-02T06:32:14.159Z,685.44
2023-03-02T06:33:13.394Z,734.40
2023-03-02T06:34:13.650Z,783.36
2023-03-02T06:35:14.045Z,783.36
2023-03-02T06:36:13.058Z,783.36
2023-03-02T06:37:13.509Z,783.36
2023-03-02T06:38:13.418Z,881.28
2023-03-02T06:39:13.265Z,881.28
2023-03-02T06:40:13.377Z,979.20
2023-03-02T06:41:13.594Z,979.20
2023-03-02T06:42:13.571Z,979.20
2023-03-02T06:43:13.836Z,1077.12
2023-03-02T06:44:15.021Z,1175.04
2023-03-02T06:45:13.081Z,1077.12
2023-03-02T06:46:13.278Z,1175.04
2023-03-02T06:47:13.816Z,1272.96
2023-03-02T06:48:13.749Z,1272.96
2023-03-02T06:49:14.287Z,1272.96
2023-03-02T06:50:13.378Z,1272.96
2023-03-02T06:51:13.517Z,1272.96
2023-03-02T06:52:13.431Z,1370.88
2023-03-02T06:53:13.582Z,1370.88
2023-03-02T06:54:14.057Z,1468.80
2023-03-02T06:55:13.027Z,1468.80
2023-03-02T06:56:13.061Z,1468.80
2023-03-02T06:57:12.989Z,1566.72
2023-03-02T06:58:12.963Z,1468.80
2023-03-02T06:59:12.949Z,1566.72
2023-03-02T07:00:13.052Z,1566.72
2023-03-02T07:01:13.042Z,1566.72
2023-03-02T07:02:13.185Z,1566.72
2023-03-02T07:03:13.607Z,1566.72
2023-03-02T07:04:13.922Z,1762.56
2023-03-02T07:05:13.041Z,1762.56
2023-03-02T07:06:13.019Z,1762.56
2023-03-02T07:07:13.110Z,1762.56
2023-03-02T07:08:13.250Z,1762.56
2023-03-02T07:09:13.619Z,1762.56
2023-03-02T07:10:13.995Z,1762.56
2023-03-02T07:11:13.202Z,1762.56
2023-03-02T07:12:13.501Z,1762.56
2023-03-02T07:13:13.701Z,1762.56
2023-03-02T07:14:13.862Z,1958.40
2023-03-02T07:15:14.125Z,1958.40
2023-03-02T07:16:13.366Z,1958.40
2023-03-02T07:17:13.307Z,1958.40
2023-03-02T07:18:13.448Z,1958.40
2023-03-02T07:19:13.355Z,1958.40
2023-03-02T07:20:13.416Z,1958.40
2023-03-02T07:21:13.692Z,1958.40
2023-03-02T07:22:13.600Z,1958.40
2023-03-02T07:23:13.773Z,1958.40
2023-03-02T07:24:13.900Z,2154.24
2023-03-02T07:25:13.023Z,1958.40
2023-03-02T07:26:17.914Z,2154.24
2023-03-02T07:27:12.931Z,2154.24
2023-03-02T07:28:12.852Z,2154.24
2023-03-02T07:29:14.166Z,2154.24
2023-03-02T07:30:13.106Z,2154.24
2023-03-02T07:31:13.313Z,2154.24
2023-03-02T07:32:14.836Z,2154.24
2023-03-02T07:33:13.952Z,2154.24
2023-03-02T07:34:13.314Z,2350.08
2023-03-02T07:35:13.436Z,2350.08
2023-03-02T07:36:13.461Z,2154.24
2023-03-02T07:37:13.381Z,2154.24
2023-03-02T07:38:13.380Z,2154.24
2023-03-02T07:39:13.559Z,2350.08
2023-03-02T07:40:13.911Z,2350.08
2023-03-02T07:41:12.877Z,2350.08
2023-03-02T07:42:14.842Z,2350.08
2023-03-02T07:43:14.123Z,2350.08
2023-03-02T07:44:13.188Z,2350.08
2023-03-02T07:45:13.251Z,2350.08
2023-03-02T07:46:13.265Z,2350.08
2023-03-02T07:47:13.987Z,2350.08
2023-03-02T07:48:13.061Z,2350.08
2023-03-02T07:49:13.003Z,2350.08
2023-03-02T07:50:13.055Z,2350.08
2023-03-02T07:51:12.947Z,2545.92
2023-03-02T07:52:12.854Z,2545.92
2023-03-02T07:53:18.030Z,2545.92
2023-03-02T07:54:13.105Z,2545.92
2023-03-02T07:55:13.321Z,2545.92
2023-03-02T07:56:13.202Z,2545.92
2023-03-02T07:57:13.374Z,2545.92
2023-03-02T07:58:13.356Z,2545.92
2023-03-02T07:59:13.318Z,2545.92
2023-03-02T08:00:13.218Z,2545.92
2023-03-02T08:01:13.538Z,2545.92
2023-03-02T08:02:13.644Z,2545.92
2023-03-02T08:03:13.788Z,2545.92
2023-03-02T08:04:13.834Z,2545.92
2023-03-02T08:05:14.038Z,2545.92
2023-03-02T08:06:13.051Z,2741.76
2023-03-02T08:07:12.950Z,2741.76
2023-03-02T08:08:13.034Z,2545.92
2023-03-02T08:09:15.769Z,2741.76
2023-03-02T08:10:13.829Z,2741.76
2023-03-02T08:11:13.698Z,2741.76
2023-03-02T08:12:13.582Z,2741.76
2023-03-02T08:13:13.487Z,2741.76
2023-03-02T08:14:13.417Z,2741.76
2023-03-02T08:15:13.385Z,2741.76
2023-03-02T08:16:13.398Z,2741.76
2023-03-02T08:17:13.893Z,2937.60
2023-03-02T08:18:12.876Z,2741.76
2023-03-02T08:19:13.887Z,2937.60
2023-03-02T08:20:13.972Z,2937.60
2023-03-02T08:21:12.938Z,2741.76
2023-03-02T08:22:12.890Z,2937.60
2023-03-02T08:23:13.099Z,2937.60
2023-03-02T08:24:13.212Z,2937.60
2023-03-02T08:25:13.447Z,2937.60
2023-03-02T08:26:17.007Z,2937.60
2023-03-02T08:27:13.623Z,2937.60
2023-03-02T08:28:13.525Z,2937.60
2023-03-02T08:29:13.407Z,2937.60
2023-03-02T08:30:13.333Z,2937.60
2023-03-02T08:31:13.631Z,2937.60
2023-03-02T08:32:13.964Z,3133.44
2023-03-02T08:33:13.185Z,3133.44
2023-03-02T08:34:13.077Z,3133.44
2023-03-02T08:35:13.221Z,3133.44
2023-03-02T08:36:13.528Z,3133.44
2023-03-02T08:37:13.833Z,3133.44
2023-03-02T08:38:14.524Z,3133.44
2023-03-02T08:39:13.976Z,3133.44
2023-03-02T08:40:13.055Z,3133.44
2023-03-02T08:41:13.121Z,2937.60
2023-03-02T08:42:12.965Z,3133.44
2023-03-02T08:43:13.241Z,3133.44
2023-03-02T08:44:13.229Z,3133.44
2023-03-02T08:45:13.252Z,3133.44
2023-03-02T08:46:13.261Z,3133.44
2023-03-02T08:47:13.303Z,3133.44
2023-03-02T08:48:13.302Z,3133.44
2023-03-02T08:49:13.803Z,3133.44
2023-03-02T08:50:13.754Z,3133.44
2023-03-02T08:51:13.917Z,3133.44
2023-03-02T08:52:13.279Z,3133.44
2023-03-02T08:53:13.215Z,3133.44
2023-03-02T08:54:13.192Z,3133.44
2023-03-02T08:55:13.554Z,3133.44
2023-03-02T08:56:13.583Z,3133.44
2023-03-02T08:57:13.976Z,3133.44
2023-03-02T08:58:13.041Z,3133.44
2023-03-02T08:59:13.064Z,3133.44
2023-03-02T09:00:13.047Z,3133.44
2023-03-02T09:01:13.479Z,3133.44
2023-03-02T09:02:13.928Z,3133.44
2023-03-02T09:03:12.876Z,3133.44
2023-03-02T09:04:12.921Z,3133.44
2023-03-02T09:05:12.841Z,3133.44
2023-03-02T09:06:14.166Z,3525.12
2023-03-02T09:07:13.929Z,3133.44
2023-03-02T09:08:13.069Z,3133.44
2023-03-02T09:09:13.234Z,3525.12
2023-03-02T09:10:13.489Z,3525.12
2023-03-02T09:11:13.780Z,3525.12
2023-03-02T09:12:13.889Z,3525.12
2023-03-02T09:13:12.812Z,3525.12
2023-03-02T09:14:13.921Z,3525.12
2023-03-02T09:15:12.877Z,3525.12
2023-03-02T09:16:13.825Z,3525.12
2023-03-02T09:17:12.865Z,3525.12
2023-03-02T09:18:12.798Z,3525.12
2023-03-02T09:19:13.741Z,3525.12
2023-03-02T09:20:13.700Z,3525.12
2023-03-02T09:21:13.710Z,3525.12
2023-03-02T09:22:13.766Z,3525.12
2023-03-02T09:23:13.608Z,3525.12
2023-03-02T09:24:13.843Z,3525.12
2023-03-02T09:25:13.755Z,3525.12
2023-03-02T09:26:13.893Z,3525.12
2023-03-02T09:27:12.804Z,3525.12
2023-03-02T09:28:13.813Z,3525.12
2023-03-02T09:29:13.835Z,3525.12
2023-03-02T09:30:13.855Z,3525.12
2023-03-02T09:31:12.966Z,3525.12
2023-03-02T09:32:13.246Z,3525.12
2023-03-02T09:33:13.336Z,3916.80
2023-03-02T09:34:13.272Z,3525.12
2023-03-02T09:35:13.207Z,3916.80
2023-03-02T09:36:13.270Z,3525.12
2023-03-02T09:37:13.342Z,3916.80
2023-03-02T09:38:13.365Z,3916.80
2023-03-02T09:39:13.315Z,3916.80
2023-03-02T09:40:13.201Z,3916.80
2023-03-02T09:41:13.540Z,3916.80
2023-03-02T09:42:13.616Z,3916.80
2023-03-02T09:43:13.619Z,3916.80
2023-03-02T09:44:13.528Z,3916.80
2023-03-02T09:45:13.736Z,3916.80
2023-03-02T09:46:14.130Z,3916.80
2023-03-02T09:47:13.223Z,3916.80
2023-03-02T09:48:13.713Z,3916.80
2023-03-02T09:49:14.246Z,3916.80
2023-03-02T09:50:13.221Z,3916.80
2023-03-02T09:51:13.164Z,4308.48
2023-03-02T09:52:13.522Z,4308.48
2023-03-02T09:53:13.598Z,4308.48
2023-03-02T09:54:13.693Z,4308.48
2023-03-02T09:55:13.645Z,4308.48
2023-03-02T09:56:13.866Z,5091.84
2023-03-02T09:57:13.811Z,7833.60
2023-03-02T09:58:13.742Z,12533.76
2023-03-02T09:59:14.106Z,15667.20
2023-03-02T10:00:19.609Z,18800.64
2023-03-02T10:01:16.402Z,21934.08
2023-03-02T10:02:13.625Z,21934.08
2023-03-02T10:03:17.499Z,21934.08
2023-03-02T10:04:14.123Z,21934.08
2023-03-02T10:05:13.198Z,23500.80
2023-03-02T10:06:13.132Z,23500.80
2023-03-02T10:07:13.164Z,23500.80
2023-03-02T10:08:13.124Z,23500.80
2023-03-02T10:09:13.061Z,23500.80
2023-03-02T10:10:13.030Z,23500.80
2023-03-02T10:11:12.989Z,23500.80
2023-03-02T10:12:13.044Z,23500.80
2023-03-02T10:13:13.062Z,23500.80
2023-03-02T10:14:13.018Z,23500.80
2023-03-02T10:15:12.958Z,23500.80
2023-03-02T10:16:13.243Z,23500.80
2023-03-02T10:17:13.558Z,23500.80
2023-03-02T10:18:13.457Z,23500.80
2023-03-02T10:19:14.645Z,25067.52
2023-03-02T10:20:13.554Z,25067.52
2023-03-02T10:21:13.754Z,25067.52
2023-03-02T10:22:13.707Z,25067.52
2023-03-02T10:23:13.801Z,25067.52
2023-03-02T10:24:14.169Z,25067.52
2023-03-02T10:25:13.277Z,25067.52
2023-03-02T10:26:13.330Z,25067.52
2023-03-02T10:27:13.547Z,25067.52
2023-03-02T10:28:13.622Z,25067.52
2023-03-02T10:29:13.644Z,25067.52
2023-03-02T10:30:13.623Z,25067.52
2023-03-02T10:31:13.725Z,25067.52
2023-03-02T10:32:13.729Z,25067.52
2023-03-02T10:33:13.998Z,25067.52
2023-03-02T10:34:13.416Z,25067.52
2023-03-02T10:35:13.544Z,25067.52
2023-03-02T10:36:13.418Z,25067.52
2023-03-02T10:37:13.758Z,25067.52
2023-03-02T10:38:13.937Z,25067.52
2023-03-02T10:39:13.021Z,28200.96
2023-03-02T10:40:12.908Z,28200.96
2023-03-02T10:41:13.256Z,28200.96
2023-03-02T10:42:13.451Z,28200.96
2023-03-02T10:43:13.391Z,28200.96
2023-03-02T10:44:13.294Z,25067.52
2023-03-02T10:45:13.220Z,28200.96
2023-03-02T10:46:13.250Z,25067.52
2023-03-02T10:47:13.298Z,28200.96
2023-03-02T10:48:13.219Z,28200.96
2023-03-02T10:49:13.144Z,28200.96
2023-03-02T10:50:13.301Z,28200.96
2023-03-02T10:51:13.344Z,28200.96
2023-03-02T10:52:13.283Z,28200.96
2023-03-02T10:53:13.380Z,28200.96
2023-03-02T10:54:13.559Z,28200.96
2023-03-02T10:55:13.485Z,28200.96
2023-03-02T10:56:13.611Z,28200.96
2023-03-02T10:57:13.760Z,28200.96
2023-03-02T10:58:13.659Z,28200.96
2023-03-02T10:59:13.640Z,28200.96
2023-03-02T11:00:13.680Z,28200.96
2023-03-02T11:01:13.781Z,28200.96
2023-03-02T11:02:13.685Z,28200.96
2023-03-02T11:03:13.900Z,28200.96
2023-03-02T11:04:12.826Z,28200.96
2023-03-02T11:05:13.748Z,28200.96
2023-03-02T11:06:13.956Z,28200.96
2023-03-02T11:07:13.021Z,28200.96
2023-03-02T11:08:13.181Z,28200.96
2023-03-02T11:09:13.167Z,28200.96
2023-03-02T11:10:13.094Z,28200.96
2023-03-02T11:11:13.322Z,28200.96
2023-03-02T11:12:13.557Z,28200.96
2023-03-02T11:13:13.518Z,28200.96
2023-03-02T11:14:13.777Z,28200.96
2023-03-02T11:15:13.772Z,28200.96
2023-03-02T11:16:13.722Z,28200.96
2023-03-02T11:17:13.822Z,28200.96
2023-03-02T11:18:13.906Z,28200.96
2023-03-02T11:19:13.061Z,28200.96
2023-03-02T11:20:13.139Z,28200.96
2023-03-02T11:21:13.290Z,28200.96
2023-03-02T11:22:13.358Z,28200.96
2023-03-02T11:23:13.335Z,28200.96
2023-03-02T11:24:13.185Z,28200.96
2023-03-02T11:25:13.236Z,28200.96
2023-03-02T11:26:13.311Z,28200.96
2023-03-02T11:27:13.251Z,28200.96
2023-03-02T11:28:13.219Z,28200.96
2023-03-02T11:29:13.304Z,28200.96
2023-03-02T11:30:13.376Z,28200.96
2023-03-02T11:31:13.922Z,31334.40
2023-03-02T11:32:13.112Z,28200.96
2023-03-02T11:33:13.268Z,28200.96
2023-03-02T11:34:17.938Z,31334.40
2023-03-02T11:35:13.467Z,31334.40
2023-03-02T11:36:13.992Z,28200.96
2023-03-02T11:37:12.885Z,28200.96
2023-03-02T11:38:13.803Z,31334.40
2023-03-02T11:39:13.706Z,28200.96
2023-03-02T11:40:13.572Z,31334.40
2023-03-02T11:41:13.607Z,28200.96
2023-03-02T11:42:13.584Z,31334.40
2023-03-02T11:43:13.703Z,28200.96
2023-03-02T11:44:13.588Z,31334.40
2023-03-02T11:45:13.569Z,28200.96
2023-03-02T11:46:21.540Z,28200.96
2023-03-02T11:47:13.383Z,28200.96
2023-03-02T11:48:13.471Z,28200.96
2023-03-02T11:49:13.413Z,31334.40
2023-03-02T11:50:13.445Z,31334.40
2023-03-02T11:51:13.469Z,31334.40
2023-03-02T11:52:15.334Z,31334.40
2023-03-02T11:53:13.048Z,31334.40
2023-03-02T11:54:13.188Z,31334.40
2023-03-02T11:55:13.197Z,31334.40
2023-03-02T11:56:13.153Z,31334.40
2023-03-02T11:57:13.159Z,31334.40
2023-03-02T11:58:13.303Z,28200.96
2023-03-02T11:59:13.315Z,28200.96
2023-03-02T12:00:13.173Z,28200.96
2023-03-02T12:01:13.079Z,31334.40
2023-03-02T12:02:13.425Z,31334.40
2023-03-02T12:03:13.714Z,31334.40
2023-03-02T12:04:13.838Z,31334.40
2023-03-02T12:05:14.046Z,31334.40
2023-03-02T12:06:13.245Z,31334.40
2023-03-02T12:07:13.145Z,31334.40
2023-03-02T12:08:13.337Z,31334.40
2023-03-02T12:09:13.278Z,31334.40
2023-03-02T12:10:13.221Z,31334.40
2023-03-02T12:11:13.280Z,31334.40
2023-03-02T12:12:13.253Z,31334.40
2023-03-02T12:13:13.319Z,28200.96
2023-03-02T12:14:13.570Z,28200.96
2023-03-02T12:15:13.769Z,28200.96
2023-03-02T12:16:13.947Z,28200.96
2023-03-02T12:17:13.096Z,28200.96
2023-03-02T12:18:13.146Z,28200.96
2023-03-02T12:19:13.290Z,28200.96
2023-03-02T12:20:13.503Z,28200.96
2023-03-02T12:21:13.803Z,28200.96
2023-03-02T12:22:13.847Z,28200.96
2023-03-02T12:23:13.875Z,28200.96
2023-03-02T12:24:13.742Z,28200.96
2023-03-02T12:25:13.807Z,28200.96
2023-03-02T12:26:14.296Z,28200.96
2023-03-02T12:27:13.298Z,28200.96
2023-03-02T12:28:13.640Z,28200.96
2023-03-02T12:29:15.169Z,28200.96
2023-03-02T12:30:13.743Z,28200.96
2023-03-02T12:31:14.150Z,28200.96
2023-03-02T12:32:13.202Z,28200.96
2023-03-02T12:33:13.275Z,28200.96
2023-03-02T12:34:13.562Z,28200.96
2023-03-02T12:35:13.607Z,28200.96